Time;durP1;ratioP1;P1;durP2;ratioP2;P2;SDS_P1;SDS_P2;PMS_P1;PMS_P2;Temp;Humidity;BMP_temperature;BMP_pressure;BME280_temperature;BME280_humidity;BME280_pressure;Samples;Min_cycle;Max_cycle;Signal;HPM_P1;HPM_P2
2022/08/06 00:00:46;;;;;;;3.10;1.67;;;;;;;18.07;68.93;99256.53;4168525;28;20204;-57
2022/08/06 00:02:50;;;;;;;2.53;1.50;;;;;;;18.07;68.74;99257.38;4173644;28;20228;-57
2022/08/06 00:04:52;;;;;;;1.40;1.30;;;;;;;18.09;68.96;99255.13;4167534;28;20617;-58
2022/08/06 00:06:54;;;;;;;1.45;1.30;;;;;;;18.11;68.98;99254.84;4171092;28;20662;-57
2022/08/06 00:08:56;;;;;;;1.65;1.55;;;;;;;18.11;69.31;99258.44;4169113;28;20204;-58
2022/08/06 00:10:58;;;;;;;2.42;1.40;;;;;;;18.11;69.40;99258.44;4164168;28;20201;-57
2022/08/06 00:13:00;;;;;;;1.52;1.35;;;;;;;18.08;69.41;99258.16;4166746;28;20229;-57
2022/08/06 00:15:06;;;;;;;3.30;2.20;;;;;;;18.08;69.50;99266.47;4168793;28;20204;-58
2022/08/06 00:17:14;;;;;;;2.55;1.73;;;;;;;18.01;69.47;99271.47;4168755;28;20570;-58
2022/08/06 00:19:15;;;;;;;1.73;1.63;;;;;;;17.92;69.76;99275.94;4168200;28;20207;-58
2022/08/06 00:21:18;;;;;;;2.92;1.73;;;;;;;17.88;69.97;99269.28;4169756;28;20235;-58
2022/08/06 00:23:40;;;;;;;2.10;1.75;;;;;;;17.83;69.87;99280.34;4182748;28;20208;-58
2022/08/06 00:25:56;;;;;;;2.17;1.55;;;;;;;17.75;70.22;99280.94;4173195;28;20717;-58
2022/08/06 00:27:57;;;;;;;6.55;1.50;;;;;;;17.68;70.52;99285.91;4167231;28;20645;-58
2022/08/06 00:29:59;;;;;;;1.50;1.40;;;;;;;17.54;70.77;99293.94;4170359;28;20295;-58
2022/08/06 00:32:06;;;;;;;2.00;1.60;;;;;;;17.33;71.64;99289.44;4171959;28;20263;-58
2022/08/06 00:34:12;;;;;;;1.95;1.75;;;;;;;17.13;72.13;99288.59;4169323;28;20204;-58
2022/08/06 00:36:18;;;;;;;2.85;1.75;;;;;;;17.20;71.89;99289.97;4170955;28;20204;-58
2022/08/06 00:38:28;;;;;;;1.77;1.52;;;;;;;17.21;71.86;99290.81;4157718;28;20217;-57
2022/08/06 00:40:31;;;;;;;2.25;1.40;;;;;;;17.28;71.34;99291.38;4171100;28;20629;-58
2022/08/06 00:42:33;;;;;;;1.52;1.40;;;;;;;17.33;71.30;99288.63;4173425;28;20635;-58
2022/08/06 00:44:39;;;;;;;2.63;1.52;;;;;;;17.37;71.14;99289.75;4166890;28;20710;-57
2022/08/06 00:46:42;;;;;;;1.83;1.50;;;;;;;17.41;71.06;99288.13;4169735;28;20204;-57
2022/08/06 00:48:45;;;;;;;1.75;1.50;;;;;;;17.41;71.20;99290.88;4174863;28;20303;-58
2022/08/06 00:50:54;;;;;;;1.30;1.20;;;;;;;17.38;71.00;99299.75;4171491;28;20242;-58
2022/08/06 00:52:56;;;;;;;1.55;1.45;;;;;;;17.37;70.96;99296.13;4176609;28;20263;-58
2022/08/06 00:54:58;;;;;;;3.50;1.50;;;;;;;17.35;71.44;99292.78;4169469;28;20231;-58
2022/08/06 00:57:01;;;;;;;1.45;1.30;;;;;;;17.31;71.36;99294.44;4171829;28;20212;-58
2022/08/06 00:59:04;;;;;;;1.95;1.40;;;;;;;17.28;71.41;99296.91;4169683;28;20258;-58
2022/08/06 01:01:11;;;;;;;2.28;1.45;;;;;;;17.29;71.36;99298.56;4169316;28;20266;-58
2022/08/06 01:03:18;;;;;;;2.05;1.35;;;;;;;17.28;71.48;99300.53;4168757;28;20214;-57
2022/08/06 01:05:40;;;;;;;1.92;1.38;;;;;;;17.28;71.32;99310.75;4172118;28;20291;-57
2022/08/06 01:08:02;;;;;;;1.33;1.27;;;;;;;17.25;71.69;99308.56;4173404;28;20570;-57
2022/08/06 01:10:05;;;;;;;1.70;1.60;;;;;;;17.16;72.15;99305.47;4177184;28;20212;-58
2022/08/06 01:12:07;;;;;;;1.83;1.70;;;;;;;17.08;72.16;99307.94;4175834;28;20261;-57
2022/08/06 01:14:11;;;;;;;1.70;1.48;;;;;;;17.07;72.21;99309.06;4172955;28;20224;-58
2022/08/06 01:16:44;;;;;;;2.17;1.98;;;;;;;17.04;72.52;99312.34;4173258;28;20645;-58
2022/08/06 01:19:24;;;;;;;1.73;1.50;;;;;;;17.00;72.35;99309.28;4171677;28;20837;-58
2022/08/06 01:22:24;;;;;;;4.03;1.52;;;;;;;17.00;72.43;99297.41;4169154;28;20252;-58
2022/08/06 01:24:57;;;;;;;1.60;1.50;;;;;;;16.96;72.76;99304.59;4170552;28;20315;-57
2022/08/06 01:27:36;;;;;;;2.47;1.63;;;;;;;16.88;73.06;99307.88;4177037;28;20287;-58
2022/08/06 01:29:46;;;;;;;1.73;1.63;;;;;;;16.86;73.07;99315.63;4168891;28;20652;-58
2022/08/06 01:31:56;;;;;;;1.95;1.60;;;;;;;16.82;73.16;99310.91;4159561;28;20377;-58
2022/08/06 01:34:21;;;;;;;1.67;1.58;;;;;;;16.82;73.10;99314.50;4170082;28;20204;-58
2022/08/06 01:36:42;;;;;;;2.65;1.70;;;;;;;16.80;72.78;99313.94;4173817;28;20216;-58
2022/08/06 01:38:51;;;;;;;2.22;1.27;;;;;;;16.79;72.96;99311.44;4184154;28;20226;-57
2022/08/06 01:41:03;;;;;;;2.05;1.60;;;;;;;16.79;72.72;99309.50;4174537;28;20207;-58
2022/08/06 01:43:08;;;;;;;2.35;1.50;;;;;;;16.78;73.05;99316.16;4173363;28;20243;-58
2022/08/06 01:45:26;;;;;;;1.67;1.58;;;;;;;16.72;73.25;99310.84;4160325;28;20645;-58
2022/08/06 01:47:47;;;;;;;1.67;1.40;;;;;;;16.69;73.08;99308.66;4169502;28;20200;-58
2022/08/06 01:49:59;;;;;;;2.88;1.52;;;;;;;16.72;72.98;99325.53;4171610;28;20204;-58
2022/08/06 01:52:05;;;;;;;1.95;1.63;;;;;;;16.72;73.04;99314.47;4169753;28;20230;-57
2022/08/06 01:54:17;;;;;;;3.05;1.60;;;;;;;16.73;72.89;99321.66;4175120;28;20200;-58
2022/08/06 01:56:21;;;;;;;2.00;1.85;;;;;;;16.70;72.81;99316.66;4169086;28;20204;-58
2022/08/06 01:58:43;;;;;;;1.67;1.58;;;;;;;16.69;73.41;99315.00;4162224;28;20470;-58
2022/08/06 02:00:51;;;;;;;1.90;1.63;;;;;;;16.66;73.42;99317.47;4168712;28;20205;-58
2022/08/06 02:02:55;;;;;;;2.58;1.77;;;;;;;16.64;73.87;99322.44;4157940;28;20634;-58
2022/08/06 02:04:59;;;;;;;2.38;2.10;;;;;;;16.58;74.19;99313.28;4169515;28;20622;-58
2022/08/06 02:07:10;;;;;;;1.60;1.50;;;;;;;16.54;74.07;99317.69;4173618;28;20290;-58
2022/08/06 02:09:17;;;;;;;2.20;1.60;;;;;;;16.52;74.48;99319.06;4168768;28;20232;-58
2022/08/06 02:11:28;;;;;;;1.92;1.60;;;;;;;16.49;74.45;99311.31;4168948;28;20215;-58
2022/08/06 02:13:51;;;;;;;4.53;1.92;;;;;;;16.44;74.57;99323.16;4168010;28;20683;-58
2022/08/06 02:15:53;;;;;;;3.60;1.40;;;;;;;16.42;74.28;99319.81;4157482;28;20294;-58
2022/08/06 02:18:02;;;;;;;4.05;2.05;;;;;;;16.40;74.28;99313.75;4169097;28;20269;-58
2022/08/06 02:20:09;;;;;;;1.85;1.75;;;;;;;16.40;74.03;99316.50;4167775;28;20207;-58
2022/08/06 02:22:13;;;;;;;2.33;2.10;;;;;;;16.39;74.14;99325.06;4170098;28;20235;-58
2022/08/06 02:24:29;;;;;;;2.67;2.05;;;;;;;16.33;74.11;99326.94;4167564;28;20838;-58
2022/08/06 02:26:33;;;;;;;3.10;1.95;;;;;;;16.33;73.86;99321.41;4180626;28;20292;-58
2022/08/06 02:28:36;;;;;;;1.73;1.63;;;;;;;16.32;73.78;99329.97;4165610;28;20694;-58
2022/08/06 02:30:42;;;;;;;3.28;1.60;;;;;;;16.31;73.66;99331.91;4171455;28;20614;-58
2022/08/06 02:32:49;;;;;;;3.03;1.50;;;;;;;16.29;73.47;99341.56;4168725;28;20606;-63
2022/08/06 02:34:51;;;;;;;1.88;1.77;;;;;;;16.28;73.41;99337.94;4155895;28;20212;-58
2022/08/06 02:37:06;;;;;;;1.98;1.45;;;;;;;16.26;73.46;99334.63;4168455;28;20200;-58
2022/08/06 02:39:15;;;;;;;2.45;1.40;;;;;;;16.22;73.55;99347.31;4150940;28;20854;-58
2022/08/06 02:41:37;;;;;;;7.25;2.47;;;;;;;16.18;73.58;99356.38;4155147;28;20208;-58
2022/08/06 02:44:04;;;;;;;3.63;1.35;;;;;;;16.14;73.46;99350.56;4154682;28;20341;-58
2022/08/06 02:46:17;;;;;;;2.13;1.60;;;;;;;16.12;73.45;99341.72;4157969;28;20215;-58
2022/08/06 02:48:26;;;;;;;1.30;1.20;;;;;;;16.08;73.55;99346.09;4173471;28;20199;-58
2022/08/06 02:50:35;;;;;;;1.27;1.17;;;;;;;16.04;73.69;99350.47;4174010;28;20303;-58
2022/08/06 02:52:45;;;;;;;2.92;1.35;;;;;;;16.01;73.56;99347.41;4167257;28;20224;-58
2022/08/06 02:55:18;;;;;;;1.50;1.40;;;;;;;15.99;73.59;99352.38;4158555;28;20726;-58
2022/08/06 02:57:30;;;;;;;2.42;1.20;;;;;;;15.96;73.48;99348.22;4170016;28;20578;-58
2022/08/06 02:59:52;;;;;;;1.48;1.38;;;;;;;15.94;73.51;99358.69;4180856;28;20282;-58
2022/08/06 03:01:58;;;;;;;2.00;1.20;;;;;;;15.92;73.47;99358.13;4169104;28;20251;-58
2022/08/06 03:04:06;;;;;;;1.35;1.20;;;;;;;15.88;73.39;99357.00;4167329;28;20214;-58
2022/08/06 03:06:10;;;;;;;3.75;1.30;;;;;;;15.86;73.35;99356.44;4156001;28;20990;-58
2022/08/06 03:08:21;;;;;;;2.58;1.33;;;;;;;15.83;73.36;99359.69;4168996;28;20594;-58
2022/08/06 03:10:28;;;;;;;1.48;1.38;;;;;;;15.81;73.12;99356.38;4168146;28;20444;-57
2022/08/06 03:12:31;;;;;;;1.73;1.45;;;;;;;15.78;73.23;99362.44;4170205;28;20342;-58
2022/08/06 03:14:34;;;;;;;3.95;1.30;;;;;;;15.73;73.36;99370.66;4152378;28;20629;-58
2022/08/06 03:16:56;;;;;;;2.25;1.20;;;;;;;15.70;73.35;99371.16;4167760;28;20647;-58
2022/08/06 03:19:00;;;;;;;1.58;1.20;;;;;;;15.68;73.42;99367.84;4171896;28;20648;-58
2022/08/06 03:21:23;;;;;;;2.15;1.13;;;;;;;15.64;73.51;99361.19;4167569;28;20243;-57
2022/08/06 03:23:25;;;;;;;1.35;1.25;;;;;;;15.62;73.35;99354.28;4170861;28;20227;-58
2022/08/06 03:25:28;;;;;;;1.77;1.33;;;;;;;15.56;73.71;99361.66;4168167;28;20211;-58
2022/08/06 03:27:32;;;;;;;1.42;1.30;;;;;;;15.55;73.65;99370.22;4154149;28;20208;-57
2022/08/06 03:29:45;;;;;;;2.05;1.42;;;;;;;15.51;73.46;99367.13;4158338;28;20319;-57
2022/08/06 03:32:00;;;;;;;2.22;1.42;;;;;;;15.50;73.53;99365.47;4166249;28;20224;-57
2022/08/06 03:34:22;;;;;;;2.03;1.17;;;;;;;15.54;73.46;99366.63;4133954;28;20273;-57
2022/08/06 03:36:24;;;;;;;1.42;1.25;;;;;;;15.50;73.39;99359.13;4186297;28;20593;-58
2022/08/06 03:38:37;;;;;;;1.80;1.30;;;;;;;15.50;73.12;99359.94;4172409;28;20216;-58
2022/08/06 03:40:43;;;;;;;1.80;1.20;;;;;;;15.50;73.05;99359.94;4188542;28;20203;-58
2022/08/06 03:42:45;;;;;;;2.50;1.45;;;;;;;15.51;72.82;99367.13;4197102;28;20254;-58
2022/08/06 03:44:53;;;;;;;1.85;1.20;;;;;;;15.52;72.85;99357.78;4185537;28;20288;-58
2022/08/06 03:47:02;;;;;;;1.55;1.25;;;;;;;15.52;72.66;99368.81;4183517;28;20276;-58
2022/08/06 03:49:34;;;;;;;3.90;1.27;;;;;;;15.49;72.71;99362.97;4183955;28;20199;-58
2022/08/06 03:51:42;;;;;;;1.10;0.93;;;;;;;15.47;72.76;99371.50;4179833;28;20231;-58
2022/08/06 03:53:57;;;;;;;1.38;1.23;;;;;;;15.45;72.91;99370.94;4183670;28;20203;-58
2022/08/06 03:56:01;;;;;;;2.10;1.67;;;;;;;15.46;72.99;99369.84;4187599;28;20245;-58
2022/08/06 03:58:06;;;;;;;4.85;1.60;;;;;;;15.42;72.84;99374.22;4169155;28;20235;-58
2022/08/06 04:00:10;;;;;;;1.83;1.25;;;;;;;15.46;72.91;99369.84;4187146;28;20195;-58
2022/08/06 04:02:14;;;;;;;4.43;1.60;;;;;;;15.39;72.87;99368.38;4188246;28;20620;-58
2022/08/06 04:04:36;;;;;;;1.85;1.75;;;;;;;15.36;72.95;99369.72;4187431;28;20209;-58
2022/08/06 04:06:38;;;;;;;1.98;1.50;;;;;;;15.34;72.83;99377.44;4171098;28;20208;-58
2022/08/06 04:08:44;;;;;;;3.78;1.65;;;;;;;15.31;72.67;99383.44;4182664;28;20711;-58
2022/08/06 04:10:48;;;;;;;3.63;1.95;;;;;;;15.32;72.67;99378.78;4171044;28;20639;-58
2022/08/06 04:12:58;;;;;;;1.67;1.58;;;;;;;15.32;72.41;99382.41;4174675;28;20234;-58
2022/08/06 04:15:20;;;;;;;2.08;1.63;;;;;;;15.31;72.25;99388.94;4188111;28;20236;-58
2022/08/06 04:17:24;;;;;;;1.40;1.30;;;;;;;15.32;72.08;99390.66;4188021;28;20528;-58
2022/08/06 04:19:33;;;;;;;1.52;1.42;;;;;;;15.30;71.81;99391.97;4188895;28;20208;-58
2022/08/06 04:21:39;;;;;;;1.35;1.20;;;;;;;15.34;71.77;99394.00;4190053;28;20226;-58
2022/08/06 04:24:00;;;;;;;6.72;1.85;;;;;;;15.32;71.59;99393.44;4186411;28;20273;-58
2022/08/06 04:26:06;;;;;;;1.50;1.40;;;;;;;15.30;71.65;99390.03;4188130;28;20246;-58
2022/08/06 04:28:17;;;;;;;2.33;1.30;;;;;;;15.24;71.81;99393.00;4188363;28;20207;-58
2022/08/06 04:30:23;;;;;;;5.85;1.33;;;;;;;15.23;71.60;99392.16;4165753;28;20204;-58
2022/08/06 04:32:26;;;;;;;1.17;1.10;;;;;;;15.21;71.69;99399.88;4187828;28;20241;-58
2022/08/06 04:34:34;;;;;;;1.85;1.27;;;;;;;15.18;71.65;99394.88;4191271;28;20216;-58
2022/08/06 04:36:58;;;;;;;1.48;1.05;;;;;;;15.21;71.20;99397.13;4185422;28;20302;-58
2022/08/06 04:39:02;;;;;;;2.97;1.38;;;;;;;15.12;71.59;99395.91;4169378;28;20223;-58
2022/08/06 04:41:10;;;;;;;1.50;1.40;;;;;;;15.15;71.44;99403.66;4184367;28;20203;-58
2022/08/06 04:43:17;;;;;;;1.38;1.27;;;;;;;15.16;71.43;99402.56;4169542;28;20260;-58
2022/08/06 04:45:20;;;;;;;1.13;1.10;;;;;;;15.14;71.71;99404.75;4192827;28;20337;-58
2022/08/06 04:47:42;;;;;;;1.88;1.08;;;;;;;15.11;71.91;99399.75;4177599;28;20265;-58
2022/08/06 04:49:48;;;;;;;1.13;1.00;;;;;;;15.11;71.89;99410.78;4192007;28;20231;-57
2022/08/06 04:52:03;;;;;;;2.55;1.75;;;;;;;15.09;72.01;99401.94;4189907;28;20230;-58
2022/08/06 04:54:25;;;;;;;1.33;1.20;;;;;;;15.10;71.97;99403.59;4187821;28;20301;-58
2022/08/06 04:56:30;;;;;;;1.58;1.17;;;;;;;15.13;71.69;99400.34;4186570;28;20665;-58
2022/08/06 04:58:38;;;;;;;1.05;0.90;;;;;;;15.18;71.51;99405.91;4191213;28;20202;-58
2022/08/06 05:00:43;;;;;;;1.25;1.15;;;;;;;15.18;71.46;99411.44;4185880;28;20655;-58
2022/08/06 05:03:05;;;;;;;1.52;1.15;;;;;;;15.13;71.50;99419.63;4190831;28;20686;-58
2022/08/06 05:05:07;;;;;;;2.03;0.90;;;;;;;15.12;71.44;99415.22;4186198;28;20199;-58
2022/08/06 05:07:19;;;;;;;2.35;1.30;;;;;;;15.12;71.11;99420.75;4186514;28;20199;-58
2022/08/06 05:09:25;;;;;;;1.33;1.10;;;;;;;15.13;71.07;99427.91;4169938;28;20200;-58
2022/08/06 05:11:48;;;;;;;1.80;1.10;;;;;;;15.14;71.16;99426.81;4181551;28;20235;-57
2022/08/06 05:14:03;;;;;;;3.80;1.83;;;;;;;15.21;71.19;99440.41;4186250;28;20204;-58
2022/08/06 05:16:10;;;;;;;1.08;1.08;;;;;;;15.25;71.04;99436.03;4172860;28;20257;-57
2022/08/06 05:18:22;;;;;;;4.43;1.02;;;;;;;15.27;71.01;99437.47;4195101;28;20846;-57
2022/08/06 05:20:49;;;;;;;1.10;1.00;;;;;;;15.29;70.72;99446.28;4193732;28;20760;-58
2022/08/06 05:22:53;;;;;;;1.40;1.30;;;;;;;15.34;70.67;99443.63;4189926;28;20261;-58
2022/08/06 05:25:02;;;;;;;0.85;0.85;;;;;;;15.36;70.71;99446.16;4186461;28;20239;-57
2022/08/06 05:27:20;;;;;;;2.28;1.17;;;;;;;15.40;70.77;99448.13;4184818;28;20227;-58
2022/08/06 05:29:24;;;;;;;3.05;1.13;;;;;;;15.45;70.58;99445.44;4201594;28;20202;-58
2022/08/06 05:31:37;;;;;;;3.00;0.80;;;;;;;15.52;70.37;99447.97;4189582;28;20673;-58
2022/08/06 05:33:41;;;;;;;1.92;1.17;;;;;;;15.53;70.08;99446.88;4192494;28;20218;-58
2022/08/06 05:35:43;;;;;;;1.65;1.20;;;;;;;15.59;69.85;99445.84;4192158;28;20215;-58
2022/08/06 05:38:01;;;;;;;1.08;0.80;;;;;;;15.75;69.51;99450.44;4185968;28;20223;-58
2022/08/06 05:40:07;;;;;;;0.88;0.73;;;;;;;15.88;69.16;99450.84;4186685;28;20207;-58
2022/08/06 05:42:12;;;;;;;1.10;1.00;;;;;;;15.98;69.56;99450.97;4183264;28;20237;-58
2022/08/06 05:44:24;;;;;;;2.83;1.40;;;;;;;16.17;69.89;99449.44;4192291;28;20263;-57
2022/08/06 05:46:52;;;;;;;2.10;0.95;;;;;;;16.06;68.59;99457.91;4188222;28;20696;-58
2022/08/06 05:49:06;;;;;;;3.03;0.90;;;;;;;16.43;68.76;99459.63;4189547;28;20209;-58
2022/08/06 05:51:40;;;;;;;1.13;0.85;;;;;;;16.67;68.28;99447.09;4191270;28;20200;-58
2022/08/06 05:53:48;;;;;;;0.93;0.80;;;;;;;16.93;68.15;99454.47;4201234;28;20226;-58
2022/08/06 05:56:10;;;;;;;1.50;0.70;;;;;;;17.00;67.48;99455.06;4176169;28;20571;-57
2022/08/06 05:58:39;;;;;;;1.25;0.70;;;;;;;17.13;66.93;99454.56;4185977;28;20262;-58
2022/08/06 06:00:42;;;;;;;0.98;0.90;;;;;;;17.27;65.89;99461.28;4202927;28;20210;-58
2022/08/06 06:02:47;;;;;;;2.72;1.00;;;;;;;17.39;66.36;99464.69;4185978;28;20231;-58
2022/08/06 06:04:50;;;;;;;0.98;0.93;;;;;;;17.47;65.55;99455.84;4184959;28;20249;-58
2022/08/06 06:07:13;;;;;;;0.70;0.70;;;;;;;17.65;65.50;99458.13;4185057;28;20203;-58
2022/08/06 06:09:36;;;;;;;3.60;1.20;;;;;;;17.67;64.26;99465.06;4187427;28;20288;-58
2022/08/06 06:11:58;;;;;;;0.88;0.70;;;;;;;17.79;64.85;99468.38;4172680;28;20251;-58
2022/08/06 06:14:06;;;;;;;2.58;0.75;;;;;;;17.98;64.76;99471.50;4187112;28;20542;-58
2022/08/06 06:16:31;;;;;;;1.13;0.82;;;;;;;17.89;62.44;99464.81;4191957;28;20203;-58
2022/08/06 06:18:54;;;;;;;1.95;0.80;;;;;;;17.94;63.80;99468.44;4185057;28;20207;-58
2022/08/06 06:21:03;;;;;;;1.88;0.90;;;;;;;18.04;63.63;99481.47;4181723;28;20293;-58
2022/08/06 06:23:26;;;;;;;1.10;1.00;;;;;;;18.17;62.63;99478.16;4186683;28;20233;-58
2022/08/06 06:25:34;;;;;;;2.60;0.80;;;;;;;18.12;61.85;99469.84;4181508;28;20294;-57
2022/08/06 06:27:45;;;;;;;3.78;0.70;;;;;;;18.12;62.35;99480.94;4188427;28;20210;-58
2022/08/06 06:30:03;;;;;;;3.30;0.65;;;;;;;18.27;61.82;99469.84;4188160;28;20206;-57
2022/08/06 06:32:18;;;;;;;1.42;0.75;;;;;;;18.08;60.57;99479.81;4183352;28;20266;-57
2022/08/06 06:34:59;;;;;;;1.13;0.60;;;;;;;17.53;61.06;99482.44;4187778;28;20253;-57
2022/08/06 06:37:13;;;;;;;0.93;0.60;;;;;;;17.75;61.89;99480.28;4183082;28;20288;-58
2022/08/06 06:39:36;;;;;;;4.07;0.90;;;;;;;18.05;61.50;99480.38;4184209;28;20461;-58
2022/08/06 06:41:43;;;;;;;1.20;0.60;;;;;;;18.19;60.59;99475.94;4199143;28;20470;-58
2022/08/06 06:44:11;;;;;;;0.50;0.50;;;;;;;18.22;60.84;99483.69;4189589;28;20223;-58
2022/08/06 06:46:41;;;;;;;2.30;0.70;;;;;;;18.62;60.80;99475.41;4183545;28;20665;-58
2022/08/06 06:48:51;;;;;;;1.58;0.98;;;;;;;18.75;59.90;99485.94;4187109;28;20203;-58
2022/08/06 06:50:59;;;;;;;1.30;0.45;;;;;;;18.85;60.23;99480.41;4188753;28;20298;-56
2022/08/06 06:53:03;;;;;;;1.52;0.70;;;;;;;18.95;58.76;99481.22;4190260;28;20633;-58
2022/08/06 06:55:21;;;;;;;1.52;0.90;;;;;;;18.96;59.29;99482.03;4175824;28;20286;-57
2022/08/06 06:57:46;;;;;;;3.83;0.60;;;;;;;19.13;59.27;99483.38;4187701;28;20204;-58
2022/08/06 06:59:52;;;;;;;1.38;0.50;;;;;;;18.80;57.00;99489.56;4187658;28;20237;-58
2022/08/06 07:02:21;;;;;;;1.63;0.50;;;;;;;18.25;58.32;99491.47;4173610;28;20285;-59
2022/08/06 07:04:29;;;;;;;0.57;0.50;;;;;;;17.89;60.22;99492.50;4169040;28;20225;-57
2022/08/06 07:06:32;;;;;;;1.35;1.25;;;;;;;17.80;60.43;99488.63;4192835;28;20238;-57
2022/08/06 07:08:47;;;;;;;0.60;0.60;;;;;;;17.84;60.22;99484.22;4190196;28;20215;-58
2022/08/06 07:10:52;;;;;;;0.75;0.52;;;;;;;17.72;60.24;99497.47;4181878;28;20235;-57
2022/08/06 07:12:57;;;;;;;1.88;0.52;;;;;;;17.71;60.42;99495.81;4179617;28;20678;-58
2022/08/06 07:15:00;;;;;;;1.85;0.85;;;;;;;17.95;60.94;99488.66;4180492;28;20326;-57
2022/08/06 07:17:04;;;;;;;0.90;0.65;;;;;;;18.44;60.91;99498.19;4187529;28;20276;-56
2022/08/06 07:19:26;;;;;;;2.55;0.68;;;;;;;19.00;60.33;99489.53;4196529;28;20647;-57
2022/08/06 07:21:27;;;;;;;1.40;0.57;;;;;;;19.34;58.49;99489.72;4183385;28;20277;-57
2022/08/06 07:23:30;;;;;;;1.88;0.63;;;;;;;19.60;59.12;99491.28;4172343;28;20219;-58
2022/08/06 07:25:53;;;;;;;0.95;0.68;;;;;;;19.72;57.98;99494.56;4186261;28;20740;-57
2022/08/06 07:27:56;;;;;;;1.08;0.70;;;;;;;19.96;58.20;99492.75;4188766;28;20207;-57
2022/08/06 07:30:01;;;;;;;1.67;0.80;;;;;;;19.97;55.49;99500.81;4170385;28;20657;-58
2022/08/06 07:32:03;;;;;;;2.17;0.60;;;;;;;19.75;55.68;99491.22;4191031;28;20689;-59
2022/08/06 07:34:06;;;;;;;1.48;0.60;;;;;;;19.00;57.16;99494.22;4186422;28;20199;-59
2022/08/06 07:36:12;;;;;;;1.35;0.60;;;;;;;19.34;57.63;99495.28;4186026;28;20211;-57
2022/08/06 07:38:20;;;;;;;1.52;0.50;;;;;;;19.85;57.56;99502.28;4189026;28;20241;-57
2022/08/06 07:40:35;;;;;;;2.92;0.52;;;;;;;20.38;56.72;99505.00;4190223;28;20296;-58
2022/08/06 07:42:37;;;;;;;2.08;0.80;;;;;;;20.63;55.73;99496.47;4186060;28;20276;-58
2022/08/06 07:44:43;;;;;;;2.15;0.70;;;;;;;21.11;55.93;99500.22;4174106;28;20270;-57
2022/08/06 07:46:59;;;;;;;2.20;0.60;;;;;;;21.37;54.51;99509.97;4185329;28;20233;-59
2022/08/06 07:49:25;;;;;;;1.08;0.50;;;;;;;21.24;54.16;99505.09;4187916;28;20207;-58
2022/08/06 07:51:50;;;;;;;0.75;0.50;;;;;;;21.60;54.41;99503.56;4189605;28;20219;-57
2022/08/06 07:53:53;;;;;;;2.05;0.63;;;;;;;22.00;54.09;99497.47;4185047;28;20279;-58
2022/08/06 07:56:06;;;;;;;4.15;0.80;;;;;;;22.26;53.30;99507.13;4189928;28;20212;-58
2022/08/06 07:58:10;;;;;;;1.02;0.70;;;;;;;22.30;52.44;99505.41;4185481;28;20775;-58
2022/08/06 08:00:13;;;;;;;2.67;0.90;;;;;;;22.39;52.21;99510.00;4187276;28;20207;-57
2022/08/06 08:02:16;;;;;;;1.63;1.02;;;;;;;22.37;51.86;99503.06;4175241;28;20565;-58
2022/08/06 08:06:55;;;;;;;1.50;0.68;;;;;;;22.86;50.39;99495.84;4188401;28;20695;-58
2022/08/06 08:09:02;;;;;;;1.48;1.00;;;;;;;22.43;50.10;99504.69;4193913;28;20664;-59
2022/08/06 08:11:05;;;;;;;5.68;0.68;;;;;;;22.76;50.67;99500.78;4194351;28;20213;-58
2022/08/06 08:13:10;;;;;;;1.58;0.70;;;;;;;22.53;49.00;99508.16;4189442;28;20811;-58
2022/08/06 08:15:14;;;;;;;2.25;1.30;;;;;;;22.06;50.49;99501.84;4183722;28;20206;-58
2022/08/06 08:17:22;;;;;;;2.75;1.15;;;;;;;21.98;51.00;99499.75;4187357;28;20561;-59
2022/08/06 08:19:36;;;;;;;2.35;1.33;;;;;;;22.16;50.99;99496.13;4192627;28;20217;-57
2022/08/06 08:21:37;;;;;;;5.63;2.05;;;;;;;22.34;49.79;99495.28;4193411;28;20234;-57
2022/08/06 08:23:49;;;;;;;3.17;1.17;;;;;;;22.73;49.69;99495.81;4177921;28;20313;-57
2022/08/06 08:25:57;;;;;;;1.95;0.93;;;;;;;23.07;49.52;99496.31;4187581;28;20250;-57
2022/08/06 08:27:59;;;;;;;3.13;0.93;;;;;;;23.26;48.52;99494.31;4173237;28;20295;-58
2022/08/06 08:30:03;;;;;;;1.75;1.13;;;;;;;23.37;47.74;99495.78;4192175;28;20590;-58
2022/08/06 08:32:06;;;;;;;1.02;0.93;;;;;;;23.26;47.82;99502.69;4189829;28;20227;-58
2022/08/06 08:34:17;;;;;;;2.20;1.38;;;;;;;23.39;47.48;99497.13;4187482;28;20290;-58
2022/08/06 08:36:20;;;;;;;3.15;1.00;;;;;;;23.35;47.31;99493.28;4194959;28;20708;-58
2022/08/06 08:38:32;;;;;;;5.05;1.20;;;;;;;23.63;46.98;99500.53;4188791;28;20252;-58
2022/08/06 08:40:34;;;;;;;2.35;0.95;;;;;;;23.21;44.20;99499.97;4192565;28;20210;-58
2022/08/06 08:42:40;;;;;;;2.60;0.80;;;;;;;23.03;45.82;99495.28;4191825;28;20265;-58
2022/08/06 08:44:42;;;;;;;3.03;1.20;;;;;;;23.39;46.45;99493.47;4184861;28;20310;-58
2022/08/06 08:46:48;;;;;;;1.45;1.05;;;;;;;22.83;46.11;99496.44;4184811;28;20202;-58
2022/08/06 08:49:04;;;;;;;3.83;1.20;;;;;;;22.61;46.97;99495.44;4185053;28;20199;-57
2022/08/06 08:51:08;;;;;;;5.10;2.33;;;;;;;22.52;46.07;99503.66;4192190;28;20210;-58
2022/08/06 08:53:20;;;;;;;2.95;1.50;;;;;;;22.10;47.25;99497.34;4187002;28;20641;-58
2022/08/06 08:55:42;;;;;;;9.85;0.73;;;;;;;21.77;47.65;99492.78;4188157;28;20225;-58
2022/08/06 08:58:04;;;;;;;2.20;0.95;;;;;;;21.46;48.54;99497.03;4177448;28;21328;-58
2022/08/06 09:00:26;;;;;;;3.03;1.23;;;;;;;20.47;48.85;99491.31;4184368;28;20753;-58
2022/08/06 09:02:28;;;;;;;1.48;0.35;;;;;;;20.97;50.27;99482.56;4188113;28;20219;-58
2022/08/06 09:04:32;;;;;;;1.42;0.60;;;;;;;21.68;49.22;99489.00;4185045;28;20680;-58
2022/08/06 09:06:36;;;;;;;0.68;0.60;;;;;;;21.55;46.94;99489.69;4181565;28;20509;-59
2022/08/06 09:08:40;;;;;;;1.63;0.80;;;;;;;21.22;47.25;99491.47;4185425;28;20250;-53
2022/08/06 09:11:03;;;;;;;1.02;0.60;;;;;;;22.04;48.13;99492.97;4190280;28;20256;-51
2022/08/06 09:13:12;;;;;;;1.80;0.85;;;;;;;22.55;46.95;99499.44;4187216;28;20733;-51
2022/08/06 09:15:24;;;;;;;2.83;1.02;;;;;;;22.46;46.08;99504.06;4186908;28;20289;-51
2022/08/06 09:17:28;;;;;;;0.73;0.70;;;;;;;22.91;46.39;99504.13;4184444;28;20397;-52
2022/08/06 09:19:50;;;;;;;1.50;0.60;;;;;;;23.51;44.45;99502.19;4189389;28;20211;-51
2022/08/06 09:21:52;;;;;;;3.85;0.57;;;;;;;23.73;44.61;99502.28;4187512;28;20264;-51
2022/08/06 09:23:55;;;;;;;1.83;0.50;;;;;;;24.01;43.89;99501.97;4191856;28;20567;-52
2022/08/06 09:26:04;;;;;;;2.72;0.57;;;;;;;24.08;44.28;99507.97;4188268;28;20959;-52
2022/08/06 09:28:41;;;;;;;0.80;0.50;;;;;;;24.30;43.64;99503.25;4189832;28;20269;-52
2022/08/06 09:30:57;;;;;;;0.70;0.65;;;;;;;24.49;43.00;99503.91;4192389;28;20203;-52
2022/08/06 09:33:00;;;;;;;1.45;0.40;;;;;;;24.65;42.72;99508.03;4189751;28;20298;-52
2022/08/06 09:35:27;;;;;;;1.65;0.50;;;;;;;24.82;42.29;99513.75;4192981;28;20653;-52
2022/08/06 09:37:46;;;;;;;1.52;0.60;;;;;;;23.44;42.08;99507.38;4188211;28;20669;-52
2022/08/06 09:39:55;;;;;;;2.22;0.70;;;;;;;23.09;43.77;99510.78;4190791;28;20203;-52
2022/08/06 09:42:13;;;;;;;1.20;0.63;;;;;;;23.73;44.10;99496.69;4191968;28;20680;-52
2022/08/06 09:44:15;;;;;;;1.70;0.73;;;;;;;23.99;42.58;99499.47;4193704;28;20231;-51
2022/08/06 09:46:47;;;;;;;0.70;0.50;;;;;;;24.54;43.04;99498.16;4186298;28;20202;-53
2022/08/06 09:49:01;;;;;;;0.90;0.73;;;;;;;24.63;41.97;99507.53;4187045;28;20206;-52
2022/08/06 09:51:23;;;;;;;0.82;0.70;;;;;;;24.26;41.64;99493.81;4188875;28;20208;-52
2022/08/06 09:54:18;;;;;;;1.30;0.40;;;;;;;24.69;40.39;99489.44;4190770;28;20694;-52
2022/08/06 09:56:27;;;;;;;1.48;0.50;;;;;;;25.14;41.43;99493.03;4195322;28;20210;-52
2022/08/06 09:58:33;;;;;;;2.05;0.40;;;;;;;24.95;40.69;99489.63;4195024;28;20206;-52
2022/08/06 10:00:37;;;;;;;11.18;0.50;;;;;;;24.76;41.88;99489.84;4190341;28;20260;-52
2022/08/06 10:02:38;;;;;;;0.63;0.30;;;;;;;24.95;40.92;99496.06;4192792;28;20230;-52
2022/08/06 10:04:41;;;;;;;1.02;0.68;;;;;;;24.02;40.28;99500.84;4174667;28;20643;-53
2022/08/06 10:07:01;;;;;;;0.60;0.30;;;;;;;24.66;41.43;99489.25;4191579;28;20245;-51
2022/08/06 10:09:12;;;;;;;1.15;0.40;;;;;;;24.97;40.64;99488.16;4193218;28;20703;-52
2022/08/06 10:11:36;;;;;;;0.63;0.40;;;;;;;25.21;41.23;99491.44;4193887;28;20638;-52
2022/08/06 10:13:50;;;;;;;2.20;0.43;;;;;;;25.55;40.14;99485.19;4188510;28;20198;-54
2022/08/06 10:15:58;;;;;;;0.47;0.32;;;;;;;25.63;40.16;99488.03;4187875;28;20210;-52
2022/08/06 10:18:03;;;;;;;1.05;0.60;;;;;;;24.20;40.05;99491.47;4189797;28;20242;-53
2022/08/06 10:20:12;;;;;;;0.55;0.40;;;;;;;24.75;41.21;99488.19;4191617;28;20203;-53